createdAt,value
2018-01-01T00:01:10.257Z,17.70
2018-01-01T00:03:38.062Z,18.57
2018-01-01T00:06:06.498Z,26.77
2018-01-01T00:08:34.153Z,17.20
2018-01-01T00:11:01.794Z,17.30
2018-01-01T00:13:29.528Z,17.53
2018-01-01T00:15:58.021Z,16.50
2018-01-01T00:18:25.747Z,17.20
2018-01-01T00:20:53.462Z,15.40
2018-01-01T00:23:21.172Z,17.27
2018-01-01T00:25:48.853Z,14.17
2018-01-01T00:28:17.302Z,15.80
2018-01-01T00:30:44.924Z,13.53
2018-01-01T00:33:12.570Z,13.23
2018-01-01T00:35:40.273Z,13.87
2018-01-01T00:38:08.033Z,12.00
2018-01-01T00:40:35.667Z,12.77
2018-01-01T00:43:03.354Z,9.97
2018-01-01T00:45:31.037Z,11.30
2018-01-01T00:47:58.683Z,10.63
2018-01-01T00:50:26.393Z,10.53
2018-01-01T00:52:54.821Z,13.73
2018-01-01T00:55:22.493Z,9.77
2018-01-01T00:57:50.197Z,13.23
2018-01-01T01:00:18.629Z,10.13
2018-01-01T01:02:46.269Z,11.90
2018-01-01T01:05:13.975Z,9.97
2018-01-01T01:07:41.617Z,11.07
2018-01-01T01:10:09.239Z,8.20
2018-01-01T01:12:36.928Z,9.70
2018-01-01T01:15:04.590Z,17.60
2018-01-01T01:17:32.245Z,12.00
2018-01-01T01:19:59.937Z,12.50
2018-01-01T01:22:27.606Z,11.07
2018-01-01T01:24:55.273Z,11.27
2018-01-01T01:27:23.797Z,11.73
2018-01-01T01:29:51.455Z,16.53
2018-01-01T01:32:19.110Z,8.17
2018-01-01T01:34:46.829Z,9.00
2018-01-01T01:37:14.524Z,9.63
2018-01-01T01:39:42.195Z,9.10
2018-01-01T01:42:09.911Z,10.17
2018-01-01T01:44:37.575Z,8.63
2018-01-01T01:47:05.257Z,7.87
2018-01-01T01:49:33.715Z,9.30
2018-01-01T01:52:01.337Z,11.03
2018-01-01T01:54:28.964Z,9.80
2018-01-01T01:56:57.389Z,9.73
2018-01-01T01:59:25.070Z,8.67
2018-01-01T02:01:52.718Z,11.57
2018-01-01T02:04:20.475Z,12.03
2018-01-01T02:06:48.423Z,9.77
2018-01-01T02:09:16.072Z,9.20
2018-01-01T02:11:43.738Z,9.67
2018-01-01T02:14:11.407Z,7.90
2018-01-01T02:16:39.076Z,11.53
2018-01-01T02:19:06.749Z,9.60
2018-01-01T02:21:34.379Z,9.73
2018-01-01T02:24:02.043Z,8.87
2018-01-01T02:26:29.691Z,10.50
2018-01-01T02:28:58.118Z,8.13
2018-01-01T02:31:25.762Z,10.23
2018-01-01T02:33:53.501Z,9.27
2018-01-01T02:36:21.183Z,8.70
2018-01-01T02:38:48.858Z,8.77
2018-01-01T02:41:16.545Z,9.10
2018-01-01T02:43:44.215Z,9.80
2018-01-01T02:46:11.848Z,11.37
2018-01-01T02:48:39.532Z,10.57
2018-01-01T02:51:07.183Z,8.83
2018-01-01T02:53:34.807Z,14.90
2018-01-01T02:56:02.475Z,59.30
2018-01-01T02:58:30.123Z,30.10
2018-01-01T03:00:57.765Z,28.90
2018-01-01T03:03:25.468Z,14.43
2018-01-01T03:05:53.112Z,8.40
2018-01-01T03:08:22.029Z,15.60
2018-01-01T03:10:49.709Z,10.40
2018-01-01T03:13:17.399Z,7.73
2018-01-01T03:15:45.032Z,11.40
2018-01-01T03:18:12.752Z,11.10
2018-01-01T03:20:40.399Z,7.47
2018-01-01T03:23:08.075Z,6.97
2018-01-01T03:25:35.746Z,8.30
2018-01-01T03:28:03.365Z,10.10
2018-01-01T03:30:31.756Z,7.90
2018-01-01T03:33:00.255Z,10.40
2018-01-01T03:35:27.904Z,6.30
2018-01-01T03:37:55.546Z,7.23
2018-01-01T03:40:23.985Z,9.37
2018-01-01T03:42:51.692Z,10.30
2018-01-01T03:45:20.088Z,6.90
2018-01-01T03:47:47.763Z,10.43
2018-01-01T03:50:15.407Z,8.07
2018-01-01T03:52:43.810Z,10.27
2018-01-01T03:55:11.492Z,7.33
2018-01-01T03:57:39.113Z,8.73
2018-01-01T04:00:06.724Z,9.17
2018-01-01T04:02:34.392Z,9.57
2018-01-01T04:05:01.995Z,6.80
2018-01-01T04:07:29.612Z,9.23
2018-01-01T04:09:57.522Z,8.07
2018-01-01T04:12:25.144Z,9.30
2018-01-01T04:14:52.757Z,7.10
2018-01-01T04:17:20.409Z,10.63
2018-01-01T04:19:48.045Z,11.13
2018-01-01T04:22:15.693Z,6.67
2018-01-01T04:24:43.356Z,6.03
2018-01-01T04:27:10.981Z,7.17
2018-01-01T04:29:38.593Z,7.43
2018-01-01T04:32:07.039Z,7.47
2018-01-01T04:34:34.657Z,6.90
2018-01-01T04:37:02.324Z,6.73
2018-01-01T04:39:29.980Z,6.23
2018-01-01T04:41:57.630Z,6.50
2018-01-01T04:44:26.022Z,7.87
2018-01-01T04:46:53.669Z,7.33
2018-01-01T04:49:22.050Z,6.37
2018-01-01T04:51:49.685Z,10.70
2018-01-01T04:54:17.352Z,7.60
2018-01-01T04:56:45.036Z,5.70
2018-01-01T04:59:12.647Z,8.50
2018-01-01T05:01:40.307Z,9.33
2018-01-01T05:04:07.968Z,6.00
2018-01-01T05:06:35.575Z,7.70
2018-01-01T05:09:03.250Z,6.77
2018-01-01T05:11:30.901Z,5.50
2018-01-01T05:13:58.548Z,6.20
2018-01-01T05:16:26.214Z,6.90
2018-01-01T05:18:54.630Z,6.37
2018-01-01T05:21:22.267Z,5.20
2018-01-01T05:23:49.971Z,6.77
2018-01-01T05:26:17.596Z,5.60
2018-01-01T05:28:45.220Z,6.00
2018-01-01T05:31:13.662Z,7.30
2018-01-01T05:33:41.321Z,7.00
2018-01-01T05:36:08.954Z,6.03
2018-01-01T05:38:36.711Z,7.10
2018-01-01T05:41:04.517Z,9.37
2018-01-01T05:43:32.186Z,7.20
2018-01-01T05:45:59.840Z,18.33
2018-01-01T05:48:27.660Z,8.27
2018-01-01T05:50:55.325Z,7.13
2018-01-01T05:53:23.011Z,6.63
2018-01-01T05:55:50.668Z,8.43
2018-01-01T05:58:18.311Z,8.63
2018-01-01T06:00:45.990Z,6.70
2018-01-01T06:03:13.642Z,7.43
2018-01-01T06:05:41.277Z,9.00
2018-01-01T06:08:09.726Z,6.97
2018-01-01T06:10:37.364Z,5.97
2018-01-01T06:13:04.991Z,6.73
2018-01-01T06:15:32.762Z,5.50
2018-01-01T06:18:00.395Z,8.20
2018-01-01T06:20:28.045Z,8.93
2018-01-01T06:22:55.715Z,7.97
2018-01-01T06:25:24.136Z,6.20
2018-01-01T06:27:51.762Z,7.73
2018-01-01T06:30:20.201Z,7.97
2018-01-01T06:32:47.830Z,7.07
2018-01-01T06:35:15.492Z,7.10
2018-01-01T06:37:43.192Z,6.03
2018-01-01T06:40:10.840Z,9.27
2018-01-01T06:42:38.450Z,7.27
2018-01-01T06:45:06.923Z,6.00
2018-01-01T06:47:34.620Z,6.03
2018-01-01T06:50:02.236Z,7.17
2018-01-01T06:52:30.715Z,6.40
2018-01-01T06:54:58.366Z,10.07
2018-01-01T06:57:26.048Z,6.70
2018-01-01T06:59:53.715Z,6.80
2018-01-01T07:02:22.119Z,6.67
2018-01-01T07:04:49.768Z,7.00
2018-01-01T07:07:18.223Z,8.20
2018-01-01T07:09:45.896Z,9.93
2018-01-01T07:12:13.574Z,9.23
2018-01-01T07:14:41.271Z,7.10
2018-01-01T07:17:09.719Z,5.20
2018-01-01T07:19:37.348Z,7.80
2018-01-01T07:22:05.017Z,6.83
2018-01-01T07:24:33.406Z,9.13
2018-01-01T07:27:01.066Z,7.60
2018-01-01T07:29:29.666Z,11.53
2018-01-01T07:31:57.291Z,6.90
2018-01-01T07:34:24.983Z,9.93
2018-01-01T07:36:52.658Z,7.20
2018-01-01T07:39:20.304Z,8.07
2018-01-01T07:41:48.696Z,6.27
2018-01-01T07:44:16.365Z,8.70
2018-01-01T07:46:43.973Z,8.97
2018-01-01T07:49:11.601Z,7.77
2018-01-01T07:51:39.293Z,13.63
2018-01-01T07:54:06.972Z,8.40
2018-01-01T07:56:34.669Z,8.03
2018-01-01T07:59:02.417Z,9.67
2018-01-01T08:01:30.833Z,7.93
2018-01-01T08:03:58.473Z,6.00
2018-01-01T08:06:26.142Z,7.97
2018-01-01T08:08:53.870Z,10.83
2018-01-01T08:11:22.298Z,7.57
2018-01-01T08:13:50.075Z,8.27
2018-01-01T08:16:17.705Z,7.93
2018-01-01T08:18:45.313Z,7.77
2018-01-01T08:21:13.001Z,11.27
2018-01-01T08:23:41.397Z,12.07
2018-01-01T08:26:09.052Z,12.13
2018-01-01T08:28:36.742Z,12.43
2018-01-01T08:31:04.404Z,10.17
2018-01-01T08:33:32.037Z,8.33
2018-01-01T08:35:59.696Z,10.67
2018-01-01T08:38:27.326Z,7.97
2018-01-01T08:40:54.961Z,10.50
2018-01-01T08:43:22.666Z,9.67
2018-01-01T08:45:51.077Z,10.17
2018-01-01T08:48:18.680Z,9.17
2018-01-01T08:50:46.333Z,12.07
2018-01-01T08:53:13.946Z,12.67
2018-01-01T08:55:42.346Z,12.97
2018-01-01T08:58:10.054Z,12.93
2018-01-01T09:00:37.684Z,17.57
2018-01-01T09:03:05.296Z,11.50
2018-01-01T09:05:32.952Z,12.90
2018-01-01T09:08:00.593Z,16.67
2018-01-01T09:10:28.216Z,19.13
2018-01-01T09:12:55.890Z,15.00
2018-01-01T09:15:23.489Z,15.23
2018-01-01T09:17:51.367Z,12.97
2018-01-01T09:20:19.019Z,14.07
2018-01-01T09:22:46.652Z,16.80
2018-01-01T09:25:14.304Z,14.67
2018-01-01T09:27:41.961Z,13.73
2018-01-01T09:30:09.574Z,13.60
2018-01-01T09:32:37.228Z,13.70
2018-01-01T09:35:04.926Z,11.93
2018-01-01T09:37:32.559Z,15.93
2018-01-01T09:40:00.191Z,16.37
2018-01-01T09:42:27.870Z,15.33
2018-01-01T09:44:55.490Z,13.43
2018-01-01T09:47:23.114Z,17.37
2018-01-01T09:49:50.785Z,15.43
2018-01-01T09:52:18.434Z,12.00
2018-01-01T09:54:46.072Z,14.43
2018-01-01T09:57:13.744Z,12.70
2018-01-01T09:59:42.134Z,15.57
2018-01-01T10:02:09.815Z,11.10
2018-01-01T10:04:38.805Z,13.47
2018-01-01T10:07:06.427Z,12.03
2018-01-01T10:09:34.836Z,12.87
2018-01-01T10:12:02.537Z,13.17
2018-01-01T10:14:30.181Z,13.03
2018-01-01T10:16:57.894Z,12.67
2018-01-01T10:19:25.576Z,13.90
2018-01-01T10:21:53.211Z,14.07
2018-01-01T10:24:20.886Z,14.23
2018-01-01T10:26:48.552Z,11.37
2018-01-01T10:29:16.183Z,13.17
2018-01-01T10:31:43.958Z,12.17
2018-01-01T10:34:11.678Z,12.63
2018-01-01T10:36:39.346Z,10.90
2018-01-01T10:39:07.044Z,16.50
2018-01-01T10:41:34.760Z,14.40
2018-01-01T10:44:02.455Z,11.80
2018-01-01T10:46:30.115Z,15.47
2018-01-01T10:48:59.420Z,14.90
2018-01-01T10:51:27.157Z,10.60
2018-01-01T10:53:54.846Z,13.43
2018-01-01T10:56:24.215Z,15.73
2018-01-01T10:58:51.840Z,20.00
2018-01-01T11:01:19.481Z,14.83
2018-01-01T11:03:47.259Z,15.37
2018-01-01T11:06:14.889Z,15.60
2018-01-01T11:08:42.521Z,16.77
2018-01-01T11:11:10.189Z,13.20
2018-01-01T11:13:37.824Z,15.63
2018-01-01T11:16:05.502Z,12.50
2018-01-01T11:18:33.162Z,16.60
2018-01-01T11:21:00.968Z,15.63
2018-01-01T11:23:29.396Z,12.97
2018-01-01T11:25:57.206Z,14.97
2018-01-01T11:28:24.866Z,13.20
2018-01-01T11:30:52.697Z,17.30
2018-01-01T11:33:20.518Z,18.07
2018-01-01T11:35:48.972Z,14.57
2018-01-01T11:38:16.619Z,15.00
2018-01-01T11:40:44.329Z,12.63
2018-01-01T11:43:12.041Z,14.10
2018-01-01T11:45:39.799Z,15.80
2018-01-01T11:48:07.597Z,14.00
2018-01-01T11:50:36.282Z,12.37
2018-01-01T11:53:04.017Z,13.40
2018-01-01T11:55:31.721Z,11.43
2018-01-01T11:57:59.378Z,14.27
2018-01-01T12:00:27.046Z,14.30
2018-01-01T12:02:54.732Z,17.43
2018-01-01T12:11:22.663Z,14.70
2018-01-01T12:16:46.797Z,10.67
2018-01-01T12:19:16.350Z,9.13
2018-01-01T12:33:20.343Z,12.53
2018-01-01T12:39:18.789Z,13.23
2018-01-01T12:41:49.387Z,15.63
2018-01-01T12:44:26.467Z,13.30
2018-01-01T12:46:54.526Z,11.93
2018-01-01T12:49:22.258Z,14.47
2018-01-01T12:51:49.981Z,13.60
2018-01-01T12:54:17.605Z,13.50
2018-01-01T12:56:52.071Z,16.27
2018-01-01T12:59:22.564Z,17.57
2018-01-01T13:01:50.432Z,15.80
2018-01-01T13:04:18.063Z,16.40
2018-01-01T13:06:45.757Z,11.97
2018-01-01T13:09:13.451Z,10.00
2018-01-01T13:11:41.127Z,10.83
2018-01-01T13:14:09.638Z,24.67
2018-01-01T13:16:37.305Z,26.70
2018-01-01T13:19:05.707Z,15.80
2018-01-01T13:21:33.404Z,13.77
2018-01-01T13:24:01.138Z,24.70
2018-01-01T13:26:28.829Z,12.30
2018-01-01T13:28:56.522Z,12.63
2018-01-01T13:31:24.232Z,12.57
2018-01-01T13:33:51.882Z,14.00
2018-01-01T13:36:19.581Z,12.17
2018-01-01T13:38:47.257Z,14.97
2018-01-01T13:41:14.963Z,19.07
2018-01-01T13:43:43.461Z,19.20
2018-01-01T13:46:11.145Z,21.90
2018-01-01T13:48:39.588Z,24.70
2018-01-01T13:51:07.266Z,12.60
2018-01-01T13:53:34.936Z,11.73
2018-01-01T13:56:03.361Z,9.00
2018-01-01T13:58:31.093Z,10.40
2018-01-01T14:00:58.773Z,11.73
2018-01-01T14:03:26.421Z,16.07
2018-01-01T14:05:54.111Z,13.00
2018-01-01T14:08:21.751Z,13.43
2018-01-01T14:10:49.412Z,18.03
2018-01-01T14:13:17.090Z,20.17
2018-01-01T14:15:44.732Z,16.50
2018-01-01T14:18:12.408Z,28.33
2018-01-01T14:23:12.980Z,20.77
2018-01-01T14:25:40.769Z,19.03
2018-01-01T14:28:08.410Z,19.57
2018-01-01T14:30:36.054Z,17.83
2018-01-01T14:33:03.787Z,21.10
2018-01-01T14:35:31.543Z,17.83
2018-01-01T14:38:00.111Z,14.00
2018-01-01T14:40:27.857Z,14.40
2018-01-01T14:42:55.603Z,22.03
2018-01-01T14:45:23.300Z,21.60
2018-01-01T14:47:50.996Z,16.63
2018-01-01T14:50:18.673Z,14.93
2018-01-01T14:52:46.303Z,12.03
2018-01-01T14:55:14.051Z,21.73
2018-01-01T14:57:41.821Z,13.93
2018-01-01T15:00:09.487Z,16.23
2018-01-01T15:02:37.247Z,13.97
2018-01-01T15:05:04.958Z,11.43
2018-01-01T15:07:33.399Z,12.23
2018-01-01T15:10:01.084Z,11.30
2018-01-01T15:12:28.701Z,11.43
2018-01-01T15:14:56.333Z,15.67
2018-01-01T15:17:24.061Z,13.47
2018-01-01T15:19:51.683Z,16.27
2018-01-01T15:22:19.318Z,11.53
2018-01-01T15:24:47.025Z,13.03
2018-01-01T15:27:14.843Z,13.80
2018-01-01T15:29:42.499Z,19.07
2018-01-01T15:32:10.232Z,24.83
2018-01-01T15:34:37.891Z,19.23
2018-01-01T15:37:06.326Z,21.20
2018-01-01T15:39:34.015Z,20.63
2018-01-01T15:42:02.440Z,21.47
2018-01-01T15:44:30.054Z,16.13
2018-01-01T15:46:57.775Z,16.90
2018-01-01T15:49:26.321Z,15.93
2018-01-01T15:51:53.959Z,14.07
2018-01-01T15:54:21.609Z,14.60
2018-01-01T15:56:49.242Z,15.17
2018-01-01T15:59:16.951Z,18.00
2018-01-01T16:01:45.371Z,15.70
2018-01-01T16:04:13.003Z,16.70
2018-01-01T16:06:41.380Z,16.37
2018-01-01T16:09:10.193Z,17.73
2018-01-01T16:11:38.728Z,26.73
2018-01-01T16:14:07.186Z,21.90
2018-01-01T16:16:34.853Z,24.43
2018-01-01T16:19:02.538Z,20.47
2018-01-01T16:21:30.162Z,17.90
2018-01-01T16:23:57.817Z,17.27
2018-01-01T16:26:25.422Z,16.53
2018-01-01T16:28:54.268Z,18.80
2018-01-01T16:31:21.988Z,16.30
2018-01-01T16:33:49.628Z,24.83
2018-01-01T16:36:18.017Z,25.83
2018-01-01T16:38:45.722Z,15.67
2018-01-01T16:41:13.368Z,14.83
2018-01-01T16:43:41.004Z,16.40
2018-01-01T16:46:08.762Z,14.43
2018-01-01T16:48:37.161Z,15.20
2018-01-01T16:51:04.781Z,17.90
2018-01-01T16:53:32.463Z,16.53
2018-01-01T16:56:00.134Z,17.23
2018-01-01T16:58:28.554Z,18.10
2018-01-01T17:00:56.245Z,17.97
2018-01-01T17:03:23.872Z,14.10
2018-01-01T17:05:51.546Z,16.87
2018-01-01T17:08:19.273Z,19.30
2018-01-01T17:10:46.951Z,14.53
2018-01-01T17:13:14.933Z,17.37
2018-01-01T17:15:44.015Z,15.50
2018-01-01T17:18:11.673Z,16.17
2018-01-01T17:20:41.883Z,11.97
2018-01-01T17:23:52.676Z,13.50
2018-01-01T17:26:38.325Z,16.63
2018-01-01T17:29:06.934Z,17.73
2018-01-01T17:31:34.579Z,13.67
2018-01-01T17:37:02.397Z,21.13
2018-01-01T17:42:24.663Z,19.60
2018-01-01T17:44:52.457Z,13.10
2018-01-01T17:47:22.475Z,14.23
2018-01-01T17:50:06.909Z,17.83
2018-01-01T17:52:34.917Z,16.60
2018-01-01T17:55:04.552Z,16.80
2018-01-01T17:57:32.319Z,17.83
2018-01-01T17:59:59.975Z,17.60
2018-01-01T18:02:27.769Z,16.50
2018-01-01T18:04:55.430Z,15.87
2018-01-01T18:10:36.229Z,25.93
2018-01-01T18:19:05.848Z,35.23
2018-01-01T18:21:33.826Z,42.80
2018-01-01T18:24:02.176Z,28.40
2018-01-01T18:26:31.244Z,29.57
2018-01-01T18:28:59.303Z,18.63
2018-01-01T18:31:27.357Z,18.90
2018-01-01T18:33:56.128Z,24.17
2018-01-01T18:36:24.288Z,24.47
2018-01-01T18:38:52.149Z,18.63
2018-01-01T18:41:26.995Z,18.10
2018-01-01T18:43:56.245Z,17.80
2018-01-01T18:46:34.802Z,16.73
2018-01-01T18:49:15.158Z,25.87
2018-01-01T18:51:46.602Z,32.67
2018-01-01T18:54:15.570Z,17.80
2018-01-01T18:56:45.101Z,19.83
2018-01-01T18:59:14.918Z,22.87
2018-01-01T19:01:44.919Z,24.20
2018-01-01T19:04:13.418Z,34.47
2018-01-01T19:06:42.715Z,35.60
2018-01-01T19:09:11.076Z,27.67
2018-01-01T19:14:48.835Z,40.73
2018-01-01T19:17:16.586Z,30.67
2018-01-01T19:19:44.418Z,28.73
2018-01-01T19:22:12.321Z,44.37
2018-01-01T19:24:40.862Z,44.13
2018-01-01T19:27:08.520Z,34.03
2018-01-01T19:29:36.400Z,30.50
2018-01-01T19:32:04.163Z,27.57
2018-01-01T19:34:31.934Z,30.80
2018-01-01T19:36:59.758Z,38.03
2018-01-01T19:45:17.967Z,25.87
2018-01-01T19:57:32.001Z,26.00
2018-01-01T20:03:12.700Z,53.13
2018-01-01T20:05:41.009Z,36.57
2018-01-01T20:08:08.875Z,51.17
2018-01-01T20:10:38.465Z,47.03
2018-01-01T20:13:06.600Z,53.43
2018-01-01T20:15:34.492Z,41.10
2018-01-01T20:18:02.518Z,33.10
2018-01-01T20:20:31.099Z,36.70
2018-01-01T20:22:59.307Z,27.53
2018-01-01T20:25:31.492Z,32.37
2018-01-01T20:28:01.042Z,23.93
2018-01-01T20:30:40.640Z,28.23
2018-01-01T20:36:09.634Z,30.43
2018-01-01T20:41:48.619Z,37.97
2018-01-01T20:44:21.386Z,55.37
2018-01-01T20:46:51.972Z,50.67
2018-01-01T20:49:28.535Z,60.00
2018-01-01T20:51:59.385Z,25.60
2018-01-01T20:54:29.953Z,32.90
2018-01-01T20:57:01.610Z,35.43
2018-01-01T20:59:31.008Z,41.27
2018-01-01T21:02:10.228Z,44.40
2018-01-01T21:04:46.027Z,35.40
2018-01-01T21:07:14.983Z,32.47
2018-01-01T21:09:45.296Z,31.70
2018-01-01T21:12:14.225Z,44.70
2018-01-01T21:14:44.923Z,34.13
2018-01-01T21:17:15.131Z,37.37
2018-01-01T21:19:42.987Z,36.30
2018-01-01T21:22:11.395Z,37.40
2018-01-01T21:24:40.834Z,26.43
2018-01-01T21:27:11.069Z,39.97
2018-01-01T21:29:39.399Z,34.77
2018-01-01T21:32:08.554Z,30.53
2018-01-01T21:34:40.114Z,33.53
2018-01-01T21:37:08.247Z,45.23
2018-01-01T21:39:36.780Z,30.03
2018-01-01T21:42:04.660Z,40.03
2018-01-01T21:44:32.687Z,32.70
2018-01-01T21:47:00.811Z,39.37
2018-01-01T21:49:28.856Z,30.73
2018-01-01T21:51:57.298Z,30.53
2018-01-01T21:54:25.429Z,61.33
2018-01-01T21:56:53.441Z,56.97
2018-01-01T21:59:21.727Z,57.10
2018-01-01T22:01:49.548Z,31.17
2018-01-01T22:04:18.098Z,29.50
2018-01-01T22:06:46.042Z,56.30
2018-01-01T22:09:15.567Z,33.73
2018-01-01T22:11:43.558Z,34.00
2018-01-01T22:14:12.157Z,37.07
2018-01-01T22:16:41.988Z,37.40
2018-01-01T22:19:10.932Z,34.87
2018-01-01T22:21:40.691Z,33.80
2018-01-01T22:24:09.256Z,31.97
2018-01-01T22:26:37.798Z,33.97
2018-01-01T22:29:06.276Z,28.00
2018-01-01T22:31:34.970Z,27.90
2018-01-01T22:34:04.106Z,27.60
2018-01-01T22:36:32.009Z,26.97
2018-01-01T22:39:00.602Z,27.70
2018-01-01T22:41:29.553Z,26.33
2018-01-01T22:43:57.405Z,27.53
2018-01-01T22:46:25.561Z,28.70
2018-01-01T22:48:53.610Z,28.63
2018-01-01T22:51:21.677Z,28.43
2018-01-01T22:53:50.134Z,25.87
2018-01-01T22:56:18.463Z,27.43
2018-01-01T22:58:46.834Z,24.23
2018-01-01T23:01:15.581Z,24.70
2018-01-01T23:03:44.766Z,26.20
2018-01-01T23:06:13.854Z,22.77
2018-01-01T23:08:41.906Z,25.50
2018-01-01T23:11:09.672Z,25.13
2018-01-01T23:13:38.771Z,26.93
2018-01-01T23:16:14.050Z,28.07
2018-01-01T23:18:50.413Z,22.60
2018-01-01T23:21:19.449Z,24.97
2018-01-01T23:23:47.545Z,32.13
2018-01-01T23:26:15.939Z,22.87
2018-01-01T23:28:44.507Z,21.50
2018-01-01T23:31:12.355Z,23.97
2018-01-01T23:33:41.328Z,22.50
2018-01-01T23:36:09.079Z,21.07
2018-01-01T23:38:37.832Z,24.73
2018-01-01T23:41:05.549Z,24.80
2018-01-01T23:43:34.868Z,23.63
2018-01-01T23:46:02.674Z,22.10
2018-01-01T23:48:30.800Z,21.80
2018-01-01T23:50:59.660Z,18.00
2018-01-01T23:53:27.938Z,22.10
2018-01-01T23:55:56.252Z,21.23
2018-01-01T23:58:24.852Z,23.30
